Time;durP1;ratioP1;P1;durP2;ratioP2;P2;SDS_P1;SDS_P2;PMS_P1;PMS_P2;Temp;Humidity;BMP_temperature;BMP_pressure;BME280_temperature;BME280_humidity;BME280_pressure;Samples;Min_cycle;Max_cycle;Signal;HPM_P1;HPM_P2
2022/08/24 00:01:44;;;;;;;;;3.67;3.67;;;;;;;;6376712;22;45641;-92
2022/08/24 00:04:09;;;;;;;;;3.33;3.33;;;;;;;;6347566;22;45219;-93
2022/08/24 00:06:34;;;;;;;;;4.00;3.33;;;;;;;;6376718;22;45304;-92
2022/08/24 00:08:59;;;;;;;;;4.00;2.00;;;;;;;;6349185;22;45250;-93
2022/08/24 00:11:25;;;;;;;;;2.33;2.00;;;;;;;;6349462;22;45362;-92
2022/08/24 00:13:51;;;;;;;;;2.00;2.00;;;;;;;;6349565;22;45514;-92
2022/08/24 00:16:17;;;;;;;;;2.00;1.00;;;;;;;;6373763;22;45708;-89
2022/08/24 00:18:43;;;;;;;;;3.00;3.00;;;;;;;;6338636;22;45368;-91
2022/08/24 00:21:08;;;;;;;;;3.33;2.33;;;;;;;;6338002;22;45354;-91
2022/08/24 00:23:35;;;;;;;;;4.67;3.00;;;;;;;;6367408;22;45440;-91
2022/08/24 00:26:00;;;;;;;;;2.00;2.00;;;;;;;;6367080;22;45481;-92
2022/08/24 00:28:25;;;;;;;;;2.33;2.33;;;;;;;;6338305;22;45285;-91
2022/08/24 00:30:51;;;;;;;;;3.33;2.67;;;;;;;;6367417;22;45319;-91
2022/08/24 00:33:16;;;;;;;;;5.00;3.67;;;;;;;;6367284;22;45209;-91
2022/08/24 00:35:41;;;;;;;;;3.00;2.67;;;;;;;;6337653;22;48151;-92
2022/08/24 00:38:07;;;;;;;;;2.00;2.00;;;;;;;;6337155;22;45448;-91
2022/08/24 00:40:34;;;;;;;;;2.67;1.67;;;;;;;;6367195;22;45260;-92
2022/08/24 00:43:03;;;;;;;;;3.00;3.00;;;;;;;;6338862;22;45339;-91
2022/08/24 00:45:29;;;;;;;;;4.33;2.67;;;;;;;;6338770;22;47448;-92
2022/08/24 00:48:00;;;;;;;;;1.67;1.67;;;;;;;;6338931;22;45450;-92
2022/08/24 00:50:37;;;;;;;;;3.00;3.00;;;;;;;;6338047;22;45299;-92
2022/08/24 00:53:05;;;;;;;;;2.33;2.33;;;;;;;;6338319;22;45477;-92
2022/08/24 00:55:35;;;;;;;;;2.00;2.00;;;;;;;;6366786;22;45628;-91
2022/08/24 00:58:02;;;;;;;;;3.67;3.00;;;;;;;;6367537;22;45528;-92
2022/08/24 01:00:30;;;;;;;;;2.00;2.00;;;;;;;;6338614;22;45368;-93
2022/08/24 01:03:00;;;;;;;;;3.33;3.33;;;;;;;;6338109;22;45293;-93
2022/08/24 01:05:25;;;;;;;;;1.00;1.00;;;;;;;;6338300;22;47966;-93
2022/08/24 01:07:51;;;;;;;;;3.00;3.00;;;;;;;;6366814;22;45569;-93
2022/08/24 01:10:23;;;;;;;;;3.67;3.33;;;;;;;;6338257;22;45312;-92
2022/08/24 01:12:51;;;;;;;;;3.00;2.00;;;;;;;;6338995;22;45358;-92
2022/08/24 01:15:19;;;;;;;;;4.00;2.67;;;;;;;;6338022;22;48456;-92
2022/08/24 01:20:28;;;;;;;;;4.67;3.67;;;;;;;;6367133;22;45652;-92
2022/08/24 01:23:10;;;;;;;;;3.00;3.00;;;;;;;;6338091;22;45379;-92
2022/08/24 01:25:37;;;;;;;;;2.67;2.67;;;;;;;;6338061;22;47532;-92
2022/08/24 01:28:04;;;;;;;;;3.33;2.00;;;;;;;;6366892;22;45337;-91
2022/08/24 01:30:29;;;;;;;;;2.67;2.67;;;;;;;;6367497;22;45453;-92
2022/08/24 01:32:56;;;;;;;;;2.33;1.00;;;;;;;;6338382;22;45603;-91
2022/08/24 01:35:21;;;;;;;;;3.00;3.00;;;;;;;;6338165;22;47341;-93
2022/08/24 01:37:47;;;;;;;;;2.33;2.33;;;;;;;;6366250;22;45466;-93
2022/08/24 01:40:13;;;;;;;;;1.33;1.00;;;;;;;;6338636;22;45436;-92
2022/08/24 01:42:38;;;;;;;;;2.00;2.00;;;;;;;;6367707;22;45460;-92
2022/08/24 01:45:05;;;;;;;;;3.00;2.33;;;;;;;;6339277;22;47912;-93
2022/08/24 01:47:30;;;;;;;;;1.33;1.33;;;;;;;;6346561;22;47092;-92
2022/08/24 01:49:55;;;;;;;;;3.00;2.00;;;;;;;;6348572;22;45137;-92
2022/08/24 01:52:22;;;;;;;;;3.33;2.33;;;;;;;;6348682;22;45126;-92
2022/08/24 01:54:48;;;;;;;;;1.33;1.33;;;;;;;;6348736;22;47117;-93
2022/08/24 01:57:14;;;;;;;;;4.00;4.00;;;;;;;;6346978;22;45614;-92
2022/08/24 01:59:39;;;;;;;;;1.00;1.00;;;;;;;;6345795;22;45339;-92
2022/08/24 02:02:06;;;;;;;;;4.00;4.00;;;;;;;;6376723;22;45549;-93
2022/08/24 02:04:33;;;;;;;;;4.00;3.00;;;;;;;;6347446;22;48419;-92
2022/08/24 02:06:59;;;;;;;;;2.67;2.00;;;;;;;;6375832;22;45178;-92
2022/08/24 02:09:24;;;;;;;;;2.67;2.67;;;;;;;;6347952;22;45227;-92
2022/08/24 02:11:49;;;;;;;;;2.33;2.33;;;;;;;;6345268;22;45516;-92
2022/08/24 02:14:15;;;;;;;;;3.67;3.67;;;;;;;;6338697;22;47912;-92
2022/08/24 02:16:40;;;;;;;;;2.33;2.33;;;;;;;;6343133;22;45624;-93
2022/08/24 02:19:05;;;;;;;;;4.00;4.00;;;;;;;;6372379;22;45344;-92
2022/08/24 02:21:31;;;;;;;;;1.00;1.00;;;;;;;;6338929;22;45251;-92
2022/08/24 02:23:56;;;;;;;;;2.33;2.33;;;;;;;;6339488;22;48207;-92
2022/08/24 02:26:21;;;;;;;;;3.00;2.67;;;;;;;;6337840;22;45704;-93
2022/08/24 02:28:47;;;;;;;;;4.67;3.67;;;;;;;;6339400;22;45440;-92
2022/08/24 02:31:13;;;;;;;;;2.00;2.00;;;;;;;;6339204;22;45537;-93
2022/08/24 02:33:38;;;;;;;;;2.00;2.00;;;;;;;;6339142;22;46897;-92
2022/08/24 02:36:05;;;;;;;;;4.67;3.67;;;;;;;;6339256;22;45647;-91
2022/08/24 02:38:30;;;;;;;;;2.00;2.00;;;;;;;;6339190;22;45576;-92
2022/08/24 02:40:56;;;;;;;;;2.00;1.33;;;;;;;;6339180;22;45398;-92
2022/08/24 02:43:21;;;;;;;;;3.00;3.00;;;;;;;;6368384;22;46175;-92
2022/08/24 02:45:47;;;;;;;;;2.33;2.00;;;;;;;;6339134;22;45764;-92
2022/08/24 02:48:12;;;;;;;;;2.33;2.33;;;;;;;;6339523;22;45320;-93
2022/08/24 02:50:42;;;;;;;;;4.00;4.00;;;;;;;;6339243;22;45260;-92
2022/08/24 02:53:08;;;;;;;;;4.67;2.33;;;;;;;;6338933;22;47075;-92
2022/08/24 02:55:34;;;;;;;;;3.33;2.00;;;;;;;;6367193;22;45390;-92
2022/08/24 02:57:59;;;;;;;;;3.33;2.33;;;;;;;;6368588;22;45457;-92
2022/08/24 03:00:26;;;;;;;;;3.33;3.00;;;;;;;;6339093;22;45445;-92
2022/08/24 03:02:52;;;;;;;;;2.67;2.67;;;;;;;;6338885;22;47153;-93
2022/08/24 03:05:17;;;;;;;;;2.00;2.00;;;;;;;;6367667;22;45420;-92
2022/08/24 03:07:43;;;;;;;;;3.67;3.33;;;;;;;;6339577;22;45312;-92
2022/08/24 03:10:08;;;;;;;;;4.33;2.67;;;;;;;;6339320;22;45441;-92
2022/08/24 03:12:34;;;;;;;;;2.33;2.33;;;;;;;;6338901;22;48129;-92
2022/08/24 03:15:01;;;;;;;;;3.00;3.00;;;;;;;;6338939;22;45197;-92
2022/08/24 03:17:26;;;;;;;;;3.67;2.67;;;;;;;;6368158;22;45664;-92
2022/08/24 03:19:51;;;;;;;;;2.67;2.00;;;;;;;;6339119;22;45895;-93
2022/08/24 03:22:17;;;;;;;;;2.33;2.33;;;;;;;;6338772;22;48242;-92
2022/08/24 03:24:43;;;;;;;;;4.00;2.67;;;;;;;;6339431;22;45404;-92
2022/08/24 03:27:08;;;;;;;;;2.33;2.00;;;;;;;;6339146;22;45627;-92
2022/08/24 03:29:34;;;;;;;;;3.67;3.67;;;;;;;;6338549;22;45413;-92
2022/08/24 03:31:59;;;;;;;;;2.67;2.67;;;;;;;;6338876;22;47467;-92
2022/08/24 03:34:25;;;;;;;;;2.00;2.00;;;;;;;;6367335;22;45390;-93
2022/08/24 03:36:50;;;;;;;;;4.00;4.00;;;;;;;;6338809;22;45545;-92
2022/08/24 03:39:16;;;;;;;;;3.00;2.67;;;;;;;;6339457;22;45561;-92
2022/08/24 03:41:41;;;;;;;;;0.33;0.33;;;;;;;;6340446;22;46281;-92
2022/08/24 03:44:07;;;;;;;;;2.67;2.67;;;;;;;;6345406;22;45602;-92
2022/08/24 03:46:35;;;;;;;;;3.33;3.33;;;;;;;;6346481;22;45247;-92
2022/08/24 03:49:00;;;;;;;;;2.33;2.00;;;;;;;;6345911;22;45241;-92
2022/08/24 03:51:27;;;;;;;;;2.00;2.00;;;;;;;;6374436;22;45226;-93
2022/08/24 03:53:53;;;;;;;;;4.00;3.00;;;;;;;;6375635;22;45370;-91
2022/08/24 03:56:18;;;;;;;;;4.00;3.00;;;;;;;;6376376;22;45354;-91
2022/08/24 03:58:44;;;;;;;;;2.67;2.67;;;;;;;;6349080;22;45532;-92
2022/08/24 04:01:10;;;;;;;;;3.00;3.00;;;;;;;;6348986;22;47172;-91
2022/08/24 04:03:39;;;;;;;;;3.00;2.67;;;;;;;;6349016;22;45350;-92
2022/08/24 04:06:05;;;;;;;;;4.00;4.00;;;;;;;;6348742;22;45339;-91
2022/08/24 04:08:31;;;;;;;;;3.00;3.00;;;;;;;;6370648;22;45241;-92
2022/08/24 04:10:56;;;;;;;;;4.00;4.00;;;;;;;;6338372;22;47900;-92
2022/08/24 04:13:22;;;;;;;;;3.33;3.33;;;;;;;;6367334;22;45579;-92
2022/08/24 04:15:49;;;;;;;;;3.67;3.00;;;;;;;;6367327;22;45306;-92
2022/08/24 04:18:14;;;;;;;;;5.00;4.00;;;;;;;;6338748;22;45249;-93
2022/08/24 04:20:41;;;;;;;;;4.67;4.67;;;;;;;;6338219;22;47074;-93
2022/08/24 04:23:07;;;;;;;;;4.00;3.67;;;;;;;;6338737;22;45307;-91
2022/08/24 04:25:46;;;;;;;;;5.67;2.00;;;;;;;;6338488;22;45367;-92
2022/08/24 04:28:13;;;;;;;;;3.00;3.00;;;;;;;;6338858;22;45786;-91
2022/08/24 04:30:39;;;;;;;;;3.00;3.00;;;;;;;;6338442;22;47396;-91
2022/08/24 04:33:05;;;;;;;;;4.00;3.00;;;;;;;;6366849;22;45366;-92
2022/08/24 04:35:30;;;;;;;;;4.33;4.00;;;;;;;;6338561;22;45586;-91
2022/08/24 04:37:56;;;;;;;;;3.00;3.00;;;;;;;;6338796;22;45541;-91
2022/08/24 04:40:21;;;;;;;;;3.33;2.67;;;;;;;;6337618;22;47966;-91
2022/08/24 04:42:47;;;;;;;;;2.33;2.33;;;;;;;;6367587;22;45285;-92
2022/08/24 04:45:12;;;;;;;;;3.00;3.00;;;;;;;;6367803;22;45546;-91
2022/08/24 04:47:37;;;;;;;;;2.00;2.00;;;;;;;;6368062;22;45437;-91
2022/08/24 04:50:02;;;;;;;;;3.33;3.33;;;;;;;;6337939;22;48444;-92
2022/08/24 04:52:28;;;;;;;;;4.00;3.00;;;;;;;;6366746;22;45268;-93
2022/08/24 04:54:53;;;;;;;;;4.33;2.67;;;;;;;;6366819;22;45355;-92
2022/08/24 04:57:18;;;;;;;;;3.00;2.67;;;;;;;;6338476;22;45232;-92
2022/08/24 04:59:44;;;;;;;;;3.00;2.67;;;;;;;;6367162;22;45729;-92
2022/08/24 05:02:09;;;;;;;;;4.00;3.33;;;;;;;;6338825;22;45430;-93
2022/08/24 05:04:36;;;;;;;;;2.67;2.67;;;;;;;;6338117;22;45180;-91
2022/08/24 05:07:01;;;;;;;;;4.00;4.00;;;;;;;;6366895;22;45400;-92
2022/08/24 05:09:26;;;;;;;;;3.00;3.00;;;;;;;;6338191;22;48386;-92
2022/08/24 05:11:52;;;;;;;;;3.00;3.00;;;;;;;;6366462;22;45284;-92
2022/08/24 05:14:17;;;;;;;;;5.67;3.00;;;;;;;;6338557;22;45879;-92
2022/08/24 05:16:43;;;;;;;;;4.00;3.00;;;;;;;;6367590;22;45438;-92
2022/08/24 05:19:08;;;;;;;;;4.00;3.33;;;;;;;;6338363;22;48238;-92
2022/08/24 05:21:33;;;;;;;;;4.33;3.33;;;;;;;;6337856;22;45441;-93
2022/08/24 05:23:58;;;;;;;;;3.67;3.67;;;;;;;;6367269;22;45412;-92
2022/08/24 05:26:25;;;;;;;;;6.00;4.33;;;;;;;;6338506;22;45335;-92
2022/08/24 05:28:58;;;;;;;;;3.00;3.00;;;;;;;;6338333;22;47389;-93
2022/08/24 05:31:26;;;;;;;;;2.33;2.33;;;;;;;;6337997;22;45434;-92
2022/08/24 05:33:52;;;;;;;;;4.00;3.67;;;;;;;;6338682;22;45482;-92
2022/08/24 05:36:22;;;;;;;;;3.67;3.67;;;;;;;;6337702;22;45418;-92
2022/08/24 05:38:47;;;;;;;;;4.00;4.00;;;;;;;;6338064;22;48012;-92
2022/08/24 05:41:14;;;;;;;;;2.67;2.33;;;;;;;;6366331;22;45434;-91
2022/08/24 05:43:39;;;;;;;;;4.00;4.00;;;;;;;;6338787;22;45806;-93
2022/08/24 05:46:04;;;;;;;;;6.00;5.00;;;;;;;;6338864;22;45476;-92
2022/08/24 05:48:29;;;;;;;;;4.33;4.33;;;;;;;;6337965;22;47298;-93
2022/08/24 05:50:55;;;;;;;;;5.00;5.00;;;;;;;;6337812;22;45524;-92
2022/08/24 05:53:20;;;;;;;;;5.00;4.00;;;;;;;;6337646;22;45309;-92
2022/08/24 05:55:46;;;;;;;;;6.00;4.00;;;;;;;;6339099;22;45513;-92
2022/08/24 05:58:11;;;;;;;;;5.67;4.67;;;;;;;;6339682;22;47273;-93
2022/08/24 06:00:37;;;;;;;;;6.00;6.00;;;;;;;;6368630;22;45289;-92
2022/08/24 06:03:02;;;;;;;;;4.00;4.00;;;;;;;;6339941;22;45316;-93
2022/08/24 06:05:27;;;;;;;;;4.33;4.33;;;;;;;;6340045;22;45317;-93
2022/08/24 06:07:52;;;;;;;;;6.00;6.00;;;;;;;;6339336;22;47317;-93
2022/08/24 06:10:18;;;;;;;;;3.33;3.33;;;;;;;;6339539;22;45239;-94
2022/08/24 06:12:43;;;;;;;;;4.00;4.00;;;;;;;;6340478;22;45342;-93
2022/08/24 06:15:08;;;;;;;;;3.00;3.00;;;;;;;;6339436;22;45537;-93
2022/08/24 06:17:33;;;;;;;;;4.00;3.67;;;;;;;;6339560;22;48093;-93
2022/08/24 06:19:59;;;;;;;;;5.00;5.00;;;;;;;;6367563;22;45382;-92
2022/08/24 06:22:24;;;;;;;;;4.33;4.33;;;;;;;;6338830;22;45377;-92
2022/08/24 06:27:33;;;;;;;;;3.00;3.00;;;;;;;;6367325;22;45689;-88
2022/08/24 06:30:08;;;;;;;;;5.00;5.00;;;;;;;;6367760;22;45305;-88
2022/08/24 06:32:34;;;;;;;;;2.00;2.00;;;;;;;;6367733;22;45342;-87
2022/08/24 06:34:59;;;;;;;;;7.00;5.00;;;;;;;;6366750;22;45271;-86
2022/08/24 06:37:26;;;;;;;;;6.00;5.00;;;;;;;;6366924;22;46078;-88
2022/08/24 06:39:52;;;;;;;;;5.00;3.67;;;;;;;;6367812;22;45549;-89
2022/08/24 06:42:17;;;;;;;;;5.67;4.67;;;;;;;;6338844;22;45288;-90
2022/08/24 06:44:43;;;;;;;;;5.00;3.67;;;;;;;;6338540;22;45453;-89
2022/08/24 06:47:08;;;;;;;;;4.00;4.00;;;;;;;;6367312;22;46252;-90
2022/08/24 06:49:33;;;;;;;;;2.33;2.33;;;;;;;;6337922;22;45546;-89
2022/08/24 06:51:58;;;;;;;;;4.67;4.33;;;;;;;;6336914;22;45670;-89
2022/08/24 06:54:24;;;;;;;;;4.00;4.00;;;;;;;;6366341;22;45351;-89
2022/08/24 06:56:49;;;;;;;;;5.00;4.67;;;;;;;;6337707;22;47168;-89
2022/08/24 06:59:15;;;;;;;;;4.67;4.67;;;;;;;;6335177;22;45736;-89
2022/08/24 07:01:40;;;;;;;;;3.33;3.33;;;;;;;;6365610;22;45755;-90
2022/08/24 07:04:06;;;;;;;;;4.67;4.00;;;;;;;;6337760;22;45371;-89
2022/08/24 07:06:31;;;;;;;;;6.67;6.67;;;;;;;;6364521;22;45339;-89
2022/08/24 07:08:56;;;;;;;;;4.33;4.33;;;;;;;;6366425;22;45649;-90
2022/08/24 07:11:21;;;;;;;;;5.00;4.00;;;;;;;;6366350;22;45355;-91
2022/08/24 07:13:48;;;;;;;;;5.00;5.00;;;;;;;;6338929;22;45283;-89
2022/08/24 07:16:14;;;;;;;;;4.00;4.00;;;;;;;;6365729;22;46141;-90
2022/08/24 07:18:39;;;;;;;;;5.67;4.33;;;;;;;;6366198;22;45306;-89
2022/08/24 07:21:04;;;;;;;;;10.00;5.67;;;;;;;;6337171;22;45485;-88
2022/08/24 07:23:30;;;;;;;;;6.67;6.67;;;;;;;;6337558;22;45210;-89
2022/08/24 07:25:55;;;;;;;;;6.67;6.67;;;;;;;;6337497;22;47009;-88
2022/08/24 07:28:20;;;;;;;;;4.00;4.00;;;;;;;;6366089;22;45236;-88
2022/08/24 07:30:46;;;;;;;;;5.33;5.33;;;;;;;;6337927;22;45264;-89
2022/08/24 07:33:11;;;;;;;;;6.67;4.67;;;;;;;;6364628;22;45359;-90
2022/08/24 07:35:37;;;;;;;;;4.00;4.00;;;;;;;;6333388;22;48190;-89
2022/08/24 07:38:03;;;;;;;;;6.67;5.67;;;;;;;;6337515;22;45333;-90
2022/08/24 07:40:29;;;;;;;;;4.33;4.33;;;;;;;;6335753;22;45449;-90
2022/08/24 07:42:55;;;;;;;;;7.00;5.00;;;;;;;;6363024;22;45464;-89
2022/08/24 07:45:21;;;;;;;;;5.67;5.67;;;;;;;;6363369;22;46982;-90
2022/08/24 07:47:47;;;;;;;;;4.00;4.00;;;;;;;;6331667;22;45742;-90
2022/08/24 07:50:12;;;;;;;;;8.33;5.00;;;;;;;;6364911;22;45442;-90
2022/08/24 07:52:37;;;;;;;;;4.67;4.33;;;;;;;;6364500;22;45434;-90
2022/08/24 07:55:04;;;;;;;;;6.00;5.67;;;;;;;;6337188;22;48289;-90
2022/08/24 07:57:29;;;;;;;;;4.00;4.00;;;;;;;;6335822;22;46090;-90
2022/08/24 07:59:55;;;;;;;;;5.00;5.00;;;;;;;;6337184;22;45247;-90
2022/08/24 08:02:20;;;;;;;;;5.00;5.00;;;;;;;;6365956;22;45130;-90
2022/08/24 08:04:45;;;;;;;;;4.67;4.00;;;;;;;;6332586;22;47250;-89
2022/08/24 08:07:11;;;;;;;;;7.00;6.00;;;;;;;;6334416;22;45315;-90
2022/08/24 08:09:37;;;;;;;;;4.33;4.33;;;;;;;;6335798;22;45410;-90
2022/08/24 08:12:03;;;;;;;;;6.67;5.33;;;;;;;;6336492;22;45708;-91
2022/08/24 08:14:28;;;;;;;;;3.33;3.33;;;;;;;;6363239;22;45488;-90
2022/08/24 08:16:53;;;;;;;;;5.00;4.67;;;;;;;;6335371;22;45519;-90
2022/08/24 08:19:18;;;;;;;;;3.00;3.00;;;;;;;;6335179;22;45342;-90
2022/08/24 08:24:28;;;;;;;;;5.33;4.00;;;;;;;;6364196;22;45530;-90
2022/08/24 08:26:54;;;;;;;;;5.00;5.00;;;;;;;;6363304;22;45505;-90
2022/08/24 08:29:19;;;;;;;;;5.33;5.00;;;;;;;;6335373;22;45379;-90
2022/08/24 08:31:45;;;;;;;;;7.67;6.67;;;;;;;;6335341;22;45664;-91
2022/08/24 08:34:11;;;;;;;;;6.33;5.00;;;;;;;;6334512;22;47905;-90
2022/08/24 08:36:39;;;;;;;;;5.00;4.67;;;;;;;;6364864;22;45650;-91
2022/08/24 08:39:04;;;;;;;;;3.00;3.00;;;;;;;;6336043;22;45498;-90
2022/08/24 08:41:43;;;;;;;;;6.00;4.00;;;;;;;;6335755;22;45249;-90
2022/08/24 08:44:15;;;;;;;;;5.00;3.67;;;;;;;;6364570;22;46147;-92
2022/08/24 08:47:00;;;;;;;;;7.00;5.67;;;;;;;;6366327;22;45281;-93
2022/08/24 08:49:37;;;;;;;;;8.00;6.33;;;;;;;;6336951;22;45485;-93
2022/08/24 08:52:12;;;;;;;;;7.33;4.00;;;;;;;;6336326;22;45423;-90
2022/08/24 08:54:43;;;;;;;;;5.00;5.00;;;;;;;;6364532;22;45328;-91
2022/08/24 08:57:08;;;;;;;;;4.33;3.00;;;;;;;;6361902;22;45248;-90
2022/08/24 08:59:41;;;;;;;;;5.00;5.00;;;;;;;;6365872;22;45453;-90
2022/08/24 09:02:09;;;;;;;;;4.33;4.33;;;;;;;;6364794;22;45399;-87
2022/08/24 09:04:46;;;;;;;;;9.00;6.67;;;;;;;;6334898;22;48044;-88
2022/08/24 09:07:27;;;;;;;;;3.33;3.33;;;;;;;;6335516;22;45531;-88
2022/08/24 09:10:11;;;;;;;;;6.00;5.00;;;;;;;;6335541;22;45279;-88
2022/08/24 09:12:49;;;;;;;;;6.00;5.00;;;;;;;;6333881;22;45349;-88
2022/08/24 09:15:20;;;;;;;;;6.00;4.00;;;;;;;;6335152;22;46336;-88
2022/08/24 09:17:59;;;;;;;;;6.33;6.33;;;;;;;;6364147;22;45285;-88
2022/08/24 09:20:24;;;;;;;;;5.33;4.00;;;;;;;;6336413;22;45387;-88
2022/08/24 09:22:59;;;;;;;;;6.75;5.75;;;;;;;;6336230;22;45341;-89
2022/08/24 09:25:34;;;;;;;;;6.00;5.00;;;;;;;;6336334;22;48233;-88
2022/08/24 09:28:02;;;;;;;;;5.67;4.00;;;;;;;;6364667;22;45331;-88
2022/08/24 09:30:34;;;;;;;;;6.00;6.00;;;;;;;;6335540;22;45387;-87
2022/08/24 09:33:15;;;;;;;;;6.00;6.00;;;;;;;;6364677;22;45481;-87
2022/08/24 09:35:49;;;;;;;;;5.00;3.00;;;;;;;;6336008;22;48200;-88
2022/08/24 09:38:20;;;;;;;;;3.00;3.00;;;;;;;;6335632;22;45704;-88
2022/08/24 09:41:04;;;;;;;;;3.33;2.67;;;;;;;;6365024;22;45251;-88
2022/08/24 09:43:49;;;;;;;;;3.00;3.00;;;;;;;;6336465;22;45374;-88
2022/08/24 09:46:33;;;;;;;;;5.33;3.00;;;;;;;;6335217;22;48446;-89
2022/08/24 09:49:14;;;;;;;;;3.67;3.00;;;;;;;;6365203;22;45339;-94
2022/08/24 09:51:55;;;;;;;;;4.00;2.33;;;;;;;;6335485;22;45434;-91
2022/08/24 09:54:40;;;;;;;;;3.00;2.33;;;;;;;;6364347;22;45352;-88
2022/08/24 09:57:05;;;;;;;;;3.00;1.00;;;;;;;;6360311;22;45474;-88
2022/08/24 09:59:40;;;;;;;;;2.25;2.25;;;;;;;;6335467;22;45310;-89
2022/08/24 10:02:05;;;;;;;;;1.00;1.00;;;;;;;;6364908;22;45354;-89
2022/08/24 10:04:49;;;;;;;;;1.00;1.00;;;;;;;;6335346;22;45279;-88
2022/08/24 10:07:23;;;;;;;;;1.67;1.33;;;;;;;;6335845;22;47121;-88
2022/08/24 10:09:51;;;;;;;;;2.33;1.00;;;;;;;;6335948;22;45429;-88
2022/08/24 10:12:32;;;;;;;;;0.00;0.00;;;;;;;;6364536;22;45469;-88
2022/08/24 10:15:31;;;;;;;;;3.00;3.00;;;;;;;;6363646;22;45422;-88
2022/08/24 10:18:05;;;;;;;;;1.00;1.00;;;;;;;;6234590;22;46447;-88
2022/08/24 10:20:39;;;;;;;;;2.00;0.00;;;;;;;;6235116;22;45300;-88
2022/08/24 10:23:13;;;;;;;;;1.00;1.00;;;;;;;;6223462;22;45436;-89
2022/08/24 10:25:42;;;;;;;;;1.00;1.00;;;;;;;;6209947;22;45361;-89
2022/08/24 10:28:07;;;;;;;;;0.33;0.00;;;;;;;;6233197;22;46125;-89
2022/08/24 10:30:39;;;;;;;;;2.00;0.75;;;;;;;;6209098;22;45615;-88
2022/08/24 10:33:12;;;;;;;;;1.00;1.00;;;;;;;;6234009;22;45571;-90
2022/08/24 10:35:53;;;;;;;;;0.00;0.00;;;;;;;;6211149;22;45380;-90
2022/08/24 10:41:24;;;;;;;;;2.67;1.00;;;;;;;;6236615;22;45399;-90
2022/08/24 10:44:28;;;;;;;;;7.67;6.67;;;;;;;;6213166;22;45370;-92
2022/08/24 10:47:00;;;;;;;;;0.00;0.00;;;;;;;;6117878;23;45463;-92
2022/08/24 10:49:34;;;;;;;;;2.00;2.00;;;;;;;;6118418;23;45350;-92
2022/08/24 10:52:05;;;;;;;;;2.00;2.00;;;;;;;;6106756;23;45430;-91
2022/08/24 10:54:34;;;;;;;;;1.00;1.00;;;;;;;;6199673;22;45696;-93
2022/08/24 10:57:05;;;;;;;;;6.00;5.00;;;;;;;;6182551;22;45512;-91
2022/08/24 10:59:30;;;;;;;;;3.00;2.67;;;;;;;;6179770;22;46316;-91
2022/08/24 11:02:00;;;;;;;;;1.00;1.00;;;;;;;;6182044;22;45802;-91
2022/08/24 11:04:27;;;;;;;;;2.00;2.00;;;;;;;;6180507;22;45342;-90
2022/08/24 11:07:16;;;;;;;;;2.00;2.00;;;;;;;;6180976;22;45411;-90
2022/08/24 11:09:43;;;;;;;;;2.00;2.00;;;;;;;;6180440;22;48398;-89
2022/08/24 11:12:16;;;;;;;;;2.00;2.00;;;;;;;;6208041;22;45374;-91
2022/08/24 11:14:45;;;;;;;;;0.33;0.00;;;;;;;;6206686;22;45351;-91
2022/08/24 11:17:19;;;;;;;;;1.00;1.00;;;;;;;;6232354;22;45457;-94
2022/08/24 11:19:48;;;;;;;;;0.00;0.00;;;;;;;;6337354;22;47749;-95
2022/08/24 11:22:35;;;;;;;;;0.67;0.67;;;;;;;;6341299;22;45362;-93
2022/08/24 11:25:03;;;;;;;;;2.00;1.00;;;;;;;;6369344;22;45322;-95
2022/08/24 11:27:46;;;;;;;;;0.00;0.00;;;;;;;;6346384;22;45384;-96
2022/08/24 11:33:02;;;;;;;;;0.00;0.00;;;;;;;;6372792;22;45307;-96
2022/08/24 11:35:27;;;;;;;;;1.00;1.00;;;;;;;;6341430;22;45349;-91
2022/08/24 11:37:55;;;;;;;;;0.00;0.00;;;;;;;;6371964;22;45380;-95
2022/08/24 11:40:21;;;;;;;;;0.00;0.00;;;;;;;;6345348;22;45982;-95
2022/08/24 11:42:53;;;;;;;;;1.67;0.00;;;;;;;;6341056;22;45264;-94
2022/08/24 11:45:33;;;;;;;;;1.00;1.00;;;;;;;;6341136;22;45236;-96
2022/08/24 11:48:03;;;;;;;;;2.00;1.00;;;;;;;;6372376;22;45253;-95
2022/08/24 11:50:32;;;;;;;;;1.00;1.00;;;;;;;;6370381;22;45775;-94
2022/08/24 11:53:21;;;;;;;;;2.67;1.00;;;;;;;;6338379;22;45693;-94
2022/08/24 11:55:46;;;;;;;;;1.33;1.33;;;;;;;;6338283;22;45305;-94
2022/08/24 11:58:27;;;;;;;;;1.00;1.00;;;;;;;;6339324;22;45260;-92
2022/08/24 12:00:55;;;;;;;;;0.00;0.00;;;;;;;;6339301;22;48257;-94
2022/08/24 12:03:56;;;;;;;;;1.00;1.00;;;;;;;;6367392;22;45221;-94
2022/08/24 12:06:21;;;;;;;;;0.33;0.33;;;;;;;;6238496;22;45475;-95
2022/08/24 12:08:53;;;;;;;;;1.33;1.33;;;;;;;;6238947;22;45502;-95
2022/08/24 12:11:37;;;;;;;;;1.00;1.00;;;;;;;;6212782;22;47223;-94
2022/08/24 12:14:21;;;;;;;;;1.00;1.00;;;;;;;;6232961;22;45771;-94
2022/08/24 12:16:59;;;;;;;;;2.00;0.67;;;;;;;;6239278;22;45314;-93
2022/08/24 12:19:30;;;;;;;;;1.00;1.00;;;;;;;;6212810;22;45738;-93
2022/08/24 12:21:57;;;;;;;;;2.00;1.00;;;;;;;;6211189;22;48209;-93
2022/08/24 12:24:39;;;;;;;;;2.00;1.33;;;;;;;;6211298;22;45379;-93
2022/08/24 12:27:07;;;;;;;;;0.00;0.00;;;;;;;;6213803;22;45729;-94
2022/08/24 12:29:39;;;;;;;;;1.00;1.00;;;;;;;;6238650;22;45414;-94
2022/08/24 12:32:25;;;;;;;;;2.00;0.33;;;;;;;;6213030;22;47251;-94
2022/08/24 12:34:54;;;;;;;;;0.67;0.67;;;;;;;;6237533;22;45481;-94
2022/08/24 12:37:24;;;;;;;;;0.00;0.00;;;;;;;;6211332;22;45295;-94
2022/08/24 12:39:52;;;;;;;;;1.00;1.00;;;;;;;;6248025;22;45424;-95
2022/08/24 12:42:21;;;;;;;;;0.67;0.67;;;;;;;;6339208;22;47357;-95
2022/08/24 12:44:54;;;;;;;;;0.33;0.33;;;;;;;;6339389;22;45422;-95
2022/08/24 12:47:22;;;;;;;;;0.00;0.00;;;;;;;;6340982;22;45257;-95
2022/08/24 12:50:00;;;;;;;;;0.00;0.00;;;;;;;;6337982;22;45554;-95
2022/08/24 12:52:43;;;;;;;;;1.00;1.00;;;;;;;;6338506;22;48390;-95
2022/08/24 12:55:20;;;;;;;;;1.33;1.33;;;;;;;;6338978;22;45622;-94
2022/08/24 12:57:56;;;;;;;;;1.00;1.00;;;;;;;;6339035;22;45668;-93
2022/08/24 13:00:26;;;;;;;;;2.00;1.00;;;;;;;;6338911;22;45201;-95
2022/08/24 13:02:57;;;;;;;;;0.67;0.67;;;;;;;;6337775;22;47468;-93
2022/08/24 13:05:22;;;;;;;;;1.00;1.00;;;;;;;;6337038;22;45453;-95
2022/08/24 13:07:49;;;;;;;;;0.00;0.00;;;;;;;;6340150;22;45522;-95
2022/08/24 13:10:34;;;;;;;;;2.00;2.00;;;;;;;;6335467;22;45545;-92
2022/08/24 13:13:09;;;;;;;;;0.33;0.33;;;;;;;;6336298;22;47137;-95
2022/08/24 13:15:34;;;;;;;;;1.00;1.00;;;;;;;;6338705;22;45641;-95
2022/08/24 13:18:08;;;;;;;;;0.00;0.00;;;;;;;;6370816;22;45503;-94
2022/08/24 13:20:33;;;;;;;;;0.67;0.67;;;;;;;;6338906;22;45569;-95
2022/08/24 13:23:04;;;;;;;;;0.00;0.00;;;;;;;;6335086;22;47102;-95
2022/08/24 13:25:49;;;;;;;;;0.00;0.00;;;;;;;;6338333;22;45539;-94
2022/08/24 13:28:34;;;;;;;;;1.67;1.67;;;;;;;;6338704;22;45261;-95
2022/08/24 13:31:23;;;;;;;;;1.00;1.00;;;;;;;;6316642;22;45548;-95
2022/08/24 13:33:56;;;;;;;;;0.00;0.00;;;;;;;;6333431;22;48557;-95
2022/08/24 13:36:30;;;;;;;;;0.00;0.00;;;;;;;;6332963;22;45638;-96
2022/08/24 13:39:02;;;;;;;;;0.00;0.00;;;;;;;;6334348;22;45372;-94
2022/08/24 13:41:34;;;;;;;;;0.00;0.00;;;;;;;;6334308;22;45285;-94
2022/08/24 13:44:20;;;;;;;;;0.00;0.00;;;;;;;;6334225;22;47611;-95
2022/08/24 13:47:04;;;;;;;;;0.33;0.33;;;;;;;;6334622;22;45508;-94
2022/08/24 13:49:32;;;;;;;;;0.00;0.00;;;;;;;;6332911;22;45372;-94
2022/08/24 13:51:57;;;;;;;;;0.00;0.00;;;;;;;;6333616;22;45392;-94
2022/08/24 13:54:31;;;;;;;;;0.00;0.00;;;;;;;;6332960;22;48084;-95
2022/08/24 13:57:15;;;;;;;;;0.67;0.67;;;;;;;;6333747;22;45318;-95
2022/08/24 13:59:50;;;;;;;;;0.00;0.00;;;;;;;;6333539;22;45562;-94
2022/08/24 14:02:15;;;;;;;;;0.00;0.00;;;;;;;;6333936;22;45929;-94
2022/08/24 14:04:47;;;;;;;;;1.00;1.00;;;;;;;;6333113;22;47292;-95
2022/08/24 14:07:51;;;;;;;;;0.00;0.00;;;;;;;;6333533;22;45311;-95
2022/08/24 14:10:22;;;;;;;;;1.00;1.00;;;;;;;;6239291;22;45402;-88
2022/08/24 14:12:53;;;;;;;;;0.33;0.33;;;;;;;;6236175;22;45476;-89
2022/08/24 14:15:24;;;;;;;;;0.00;0.00;;;;;;;;6236206;22;46557;-90
2022/08/24 14:17:52;;;;;;;;;0.00;0.00;;;;;;;;6211243;22;45966;-88
2022/08/24 14:20:17;;;;;;;;;0.33;0.33;;;;;;;;6237248;22;45344;-89
2022/08/24 14:23:01;;;;;;;;;0.00;0.00;;;;;;;;6237642;22;45300;-89
2022/08/24 14:25:32;;;;;;;;;0.00;0.00;;;;;;;;6237071;22;47269;-90
2022/08/24 14:27:57;;;;;;;;;0.00;0.00;;;;;;;;6211295;22;45404;-88
2022/08/24 14:30:22;;;;;;;;;0.50;0.50;;;;;;;;6237050;22;45350;-88
2022/08/24 14:32:57;;;;;;;;;0.67;0.67;;;;;;;;6236824;22;45695;-88
2022/08/24 14:35:24;;;;;;;;;0.00;0.00;;;;;;;;6236238;22;48309;-88
2022/08/24 14:37:58;;;;;;;;;0.00;0.00;;;;;;;;6237083;22;45491;-88
2022/08/24 14:40:53;;;;;;;;;0.00;0.00;;;;;;;;6259189;22;45680;-89
2022/08/24 14:43:25;;;;;;;;;0.00;0.00;;;;;;;;6332915;22;45369;-91
2022/08/24 14:45:51;;;;;;;;;1.00;0.00;;;;;;;;6331933;22;47277;-90
2022/08/24 14:48:37;;;;;;;;;0.00;0.00;;;;;;;;6333770;22;45284;-89
2022/08/24 14:51:05;;;;;;;;;0.00;0.00;;;;;;;;6331502;22;45396;-91
2022/08/24 14:53:45;;;;;;;;;0.00;0.00;;;;;;;;6331964;22;45525;-87
2022/08/24 14:56:11;;;;;;;;;0.00;0.00;;;;;;;;6333128;22;46476;-88
2022/08/24 14:58:39;;;;;;;;;0.00;0.00;;;;;;;;6333107;22;45490;-88
2022/08/24 15:01:13;;;;;;;;;0.00;0.00;;;;;;;;6326492;22;45652;-90
2022/08/24 15:03:38;;;;;;;;;0.00;0.00;;;;;;;;6331260;22;45228;-89
2022/08/24 15:06:19;;;;;;;;;2.00;0.00;;;;;;;;6330701;22;48133;-88
2022/08/24 15:08:44;;;;;;;;;0.00;0.00;;;;;;;;6335141;22;45511;-88
2022/08/24 15:11:17;;;;;;;;;0.00;0.00;;;;;;;;6331679;22;45424;-88